createdAt,value
2022-11-14T00:00:53.248Z,17.4
2022-11-14T00:03:11.519Z,16.3
2022-11-14T00:05:30.260Z,16
2022-11-14T00:07:48.384Z,17.3
2022-11-14T00:10:06.564Z,16.3
2022-11-14T00:12:24.789Z,16.1
2022-11-14T00:14:43.666Z,16.1
2022-11-14T00:17:01.982Z,17.4
2022-11-14T00:19:20.065Z,16.3
2022-11-14T00:21:38.107Z,15.9
2022-11-14T00:23:56.341Z,16.1
2022-11-14T00:26:14.453Z,16.2
2022-11-14T00:28:33.083Z,16.1
2022-11-14T00:30:51.036Z,16.2
2022-11-14T00:33:09.577Z,16
2022-11-14T00:35:28.450Z,17.2
2022-11-14T00:37:46.698Z,17.4
2022-11-14T00:40:04.934Z,16.2
2022-11-14T00:42:23.214Z,16
2022-11-14T00:44:41.374Z,16.1
2022-11-14T00:47:00.152Z,16.1
2022-11-14T00:49:18.313Z,17.4
2022-11-14T00:51:36.391Z,16.2
2022-11-14T00:53:54.614Z,15.9
2022-11-14T00:56:12.935Z,16.1
2022-11-14T00:58:31.434Z,16
2022-11-14T01:00:49.211Z,16.2
2022-11-14T01:03:08.354Z,16
2022-11-14T01:05:26.183Z,17.4
2022-11-14T01:07:44.406Z,15.9
2022-11-14T01:10:02.546Z,16
2022-11-14T01:12:20.749Z,16.1
2022-11-14T01:14:38.959Z,16.1
2022-11-14T01:16:57.062Z,16.1
2022-11-14T01:19:15.640Z,15.8
2022-11-14T01:21:33.722Z,16
2022-11-14T01:23:52.125Z,16
2022-11-14T01:26:10.265Z,15.9
2022-11-14T01:28:28.769Z,16.1
2022-11-14T01:30:46.766Z,15.9
2022-11-14T01:33:04.965Z,16
2022-11-14T01:35:23.438Z,15.9
2022-11-14T01:37:42.164Z,15.9
2022-11-14T01:40:00.601Z,17.2
2022-11-14T01:42:20.977Z,16.1
2022-11-14T01:44:37.226Z,15.9
2022-11-14T01:46:55.426Z,15.9
2022-11-14T01:49:13.697Z,15.9
2022-11-14T01:51:32.932Z,15.9
2022-11-14T01:53:50.804Z,17.1
2022-11-14T01:56:09.324Z,15.8
2022-11-14T01:58:28.522Z,15.9
2022-11-14T02:00:47.248Z,17.3
2022-11-14T02:03:05.522Z,17.3
2022-11-14T02:05:23.783Z,15.9
2022-11-14T02:07:42.120Z,16
2022-11-14T02:10:01.085Z,15.9
2022-11-14T02:12:19.258Z,17.4
2022-11-14T02:14:37.455Z,15.9
2022-11-14T02:17:22.520Z,15.9
2022-11-14T02:19:33.194Z,15.9
2022-11-14T02:21:52.025Z,16
2022-11-14T02:24:10.320Z,17.1
2022-11-14T02:26:31.972Z,15.9
2022-11-14T02:28:47.942Z,17.3
2022-11-14T02:31:06.805Z,17.3
2022-11-14T02:33:42.636Z,17.3
2022-11-14T02:36:00.725Z,15.9
2022-11-14T02:38:19.577Z,16.1
2022-11-14T02:40:38.081Z,17.1
2022-11-14T02:42:55.894Z,15.9
2022-11-14T02:45:14.085Z,16
2022-11-14T02:47:32.273Z,15.8
2022-11-14T02:49:50.463Z,15.8
2022-11-14T02:52:08.703Z,15.9
2022-11-14T02:54:26.822Z,15.9
2022-11-14T02:56:45.215Z,15.8
2022-11-14T02:59:03.110Z,15.9
2022-11-14T03:01:36.894Z,15.6
2022-11-14T03:03:55.680Z,15.9
2022-11-14T03:06:13.872Z,17.1
2022-11-14T03:08:32.520Z,15.8
2022-11-14T03:10:51.253Z,15.8
2022-11-14T03:13:09.760Z,17.2
2022-11-14T03:15:27.773Z,15.9
2022-11-14T03:17:46.152Z,15.9
2022-11-14T03:20:04.284Z,15.8
2022-11-14T03:22:22.759Z,15.6
2022-11-14T03:24:40.834Z,15.7
2022-11-14T03:26:59.629Z,15.6
2022-11-14T03:29:17.484Z,15.8
2022-11-14T03:31:35.539Z,15.6
2022-11-14T03:33:54.620Z,15.8
2022-11-14T03:36:13.495Z,17.2
2022-11-14T03:38:32.348Z,17.3
2022-11-14T03:40:50.198Z,15.8
2022-11-14T03:43:09.279Z,15.9
2022-11-14T03:45:27.574Z,17.2
2022-11-14T03:47:45.947Z,15.7
2022-11-14T03:50:04.120Z,15.7
2022-11-14T03:52:22.309Z,15.6
2022-11-14T03:54:41.399Z,15.9
2022-11-14T03:56:59.606Z,17.1
2022-11-14T03:59:18.602Z,15.6
2022-11-14T04:01:36.959Z,17.2
2022-11-14T04:03:55.401Z,15.7
2022-11-14T04:06:13.420Z,15.9
2022-11-14T04:08:32.302Z,15.6
2022-11-14T04:10:50.068Z,15.7
2022-11-14T04:13:08.687Z,15.8
2022-11-14T04:15:26.607Z,15.7
2022-11-14T04:17:44.980Z,15.7
2022-11-14T04:20:03.157Z,15.7
2022-11-14T04:22:21.432Z,15.4
2022-11-14T04:24:39.818Z,15.8
2022-11-14T04:26:58.664Z,15.7
2022-11-14T04:29:17.844Z,16.9
2022-11-14T04:31:36.032Z,17.1
2022-11-14T04:33:54.629Z,15.6
2022-11-14T04:36:12.726Z,15.4
2022-11-14T04:38:31.075Z,15.8
2022-11-14T04:40:49.846Z,15.7
2022-11-14T04:43:08.023Z,17.1
2022-11-14T04:45:26.522Z,15.7
2022-11-14T04:47:44.685Z,15.9
2022-11-14T04:50:03.264Z,15.6
2022-11-14T04:52:21.335Z,15.5
2022-11-14T04:54:39.763Z,15.6
2022-11-14T04:56:58.629Z,15.7
2022-11-14T04:59:20.780Z,17.1
2022-11-14T05:01:35.325Z,15.8
2022-11-14T05:03:53.507Z,15.7
2022-11-14T05:06:12.649Z,15.9
2022-11-14T05:08:31.126Z,17.3
2022-11-14T05:10:49.917Z,15.6
2022-11-14T05:13:08.886Z,17.1
2022-11-14T05:15:27.280Z,16.8
2022-11-14T05:17:45.491Z,15.6
2022-11-14T05:20:03.917Z,15.6
2022-11-14T05:22:22.185Z,15.6
2022-11-14T05:24:40.227Z,15.4
2022-11-14T05:26:58.696Z,15.6
2022-11-14T05:29:16.911Z,15.4
2022-11-14T05:31:35.352Z,15.5
2022-11-14T05:33:53.534Z,15.4
2022-11-14T05:36:12.051Z,15.6
2022-11-14T05:38:30.459Z,15.5
2022-11-14T05:40:49.297Z,15.5
2022-11-14T05:43:07.580Z,17.1
2022-11-14T05:45:26.835Z,15.4
2022-11-14T05:47:44.907Z,17.1
2022-11-14T05:50:03.102Z,15.8
2022-11-14T05:52:21.540Z,15.6
2022-11-14T05:54:39.683Z,15.6
2022-11-14T05:56:58.108Z,15.7
2022-11-14T05:59:16.398Z,15.5
2022-11-14T06:01:34.791Z,15.4
2022-11-14T06:03:52.868Z,15.6
2022-11-14T06:06:11.388Z,15.6
2022-11-14T06:08:30.570Z,15.6
2022-11-14T06:13:08.261Z,17.2
2022-11-14T06:15:26.373Z,15.5
2022-11-14T06:17:45.527Z,15.6
2022-11-14T06:20:03.738Z,16.9
2022-11-14T06:22:22.096Z,15.7
2022-11-14T06:24:40.456Z,15.6
2022-11-14T06:26:58.815Z,15.4
2022-11-14T06:29:17.010Z,15.5
2022-11-14T06:31:35.511Z,15.6
2022-11-14T06:33:53.478Z,15.6
2022-11-14T06:36:11.681Z,15.5
2022-11-14T06:38:30.364Z,15.6
2022-11-14T06:40:48.491Z,15.4
2022-11-14T06:43:06.819Z,15.4
2022-11-14T06:45:25.136Z,15.6
2022-11-14T06:47:43.417Z,15.6
2022-11-14T06:50:02.398Z,15.8
2022-11-14T06:52:20.768Z,17.1
2022-11-14T06:54:39.523Z,15.4
2022-11-14T06:56:57.940Z,16.9
2022-11-14T06:59:16.304Z,15.8
2022-11-14T07:01:34.627Z,15.5
2022-11-14T07:03:52.997Z,15.5
2022-11-14T07:06:11.070Z,15.6
2022-11-14T07:08:29.627Z,15.3
2022-11-14T07:10:47.756Z,15.8
2022-11-14T07:13:06.162Z,15.5
2022-11-14T07:15:24.348Z,15.6
2022-11-14T07:17:43.029Z,15.8
2022-11-14T07:20:01.706Z,15.4
2022-11-14T07:22:19.845Z,17.1
2022-11-14T07:24:38.346Z,15.6
2022-11-14T07:26:56.559Z,15.6
2022-11-14T07:29:14.745Z,15.5
2022-11-14T07:31:32.989Z,15.6
2022-11-14T07:33:51.438Z,15.5
2022-11-14T07:36:09.595Z,15.6
2022-11-14T07:38:28.268Z,15.4
2022-11-14T07:40:46.241Z,15.6
2022-11-14T07:43:04.391Z,15.7
2022-11-14T07:45:22.871Z,15.6
2022-11-14T07:47:41.045Z,15.6
2022-11-14T07:49:59.473Z,15.4
2022-11-14T07:52:17.560Z,15.4
2022-11-14T07:54:36.185Z,15.8
2022-11-14T07:56:54.196Z,15.8
2022-11-14T07:59:13.244Z,15.6
2022-11-14T08:01:31.501Z,17.3
2022-11-14T08:03:50.347Z,15.8
2022-11-14T08:06:08.073Z,15.7
2022-11-14T08:08:26.319Z,15.8
2022-11-14T08:10:44.687Z,15.8
2022-11-14T08:13:35.111Z,15.8
2022-11-14T08:15:40.708Z,15.8
2022-11-14T08:20:17.041Z,15.6
2022-11-14T08:22:35.310Z,15.7
2022-11-14T08:24:53.275Z,15.8
2022-11-14T08:27:11.488Z,15.8
2022-11-14T08:29:29.869Z,15.9
2022-11-14T08:31:47.780Z,15.9
2022-11-14T08:34:05.935Z,15.8
2022-11-14T08:36:24.870Z,15.9
2022-11-14T08:38:43.018Z,17.4
2022-11-14T08:41:01.227Z,15.8
2022-11-14T08:43:19.342Z,16
2022-11-14T08:45:38.261Z,16.1
2022-11-14T08:47:56.438Z,17.4
2022-11-14T08:50:14.592Z,15.7
2022-11-14T08:52:32.818Z,15.8
2022-11-14T08:54:50.942Z,15.9
2022-11-14T08:57:09.776Z,15.7
2022-11-14T08:59:28.047Z,17.3
2022-11-14T09:01:46.202Z,15.9
2022-11-14T09:04:04.478Z,15.8
2022-11-14T09:06:22.562Z,15.9
2022-11-14T09:08:40.634Z,15.8
2022-11-14T09:11:04.328Z,16
2022-11-14T09:13:17.795Z,17.3
2022-11-14T09:15:36.051Z,16
2022-11-14T09:17:54.122Z,16.1
2022-11-14T09:20:12.145Z,16.2
2022-11-14T09:22:30.344Z,16
2022-11-14T09:24:48.565Z,16
2022-11-14T09:27:06.915Z,16.1
2022-11-14T09:29:24.916Z,16
2022-11-14T09:31:43.359Z,16.1
2022-11-14T09:34:01.624Z,15.8
2022-11-14T09:36:20.120Z,16.1
2022-11-14T09:38:38.982Z,16.2
2022-11-14T09:40:56.539Z,16.2
2022-11-14T09:43:15.022Z,16.2
2022-11-14T09:45:33.275Z,16.1
2022-11-14T09:47:51.826Z,16.1
2022-11-14T09:50:10.747Z,16.2
2022-11-14T09:52:29.830Z,17.9
2022-11-14T09:54:48.811Z,17.8
2022-11-14T09:57:07.316Z,17.9
2022-11-14T09:59:25.688Z,16.7
2022-11-14T10:01:44.577Z,16.4
2022-11-14T10:04:05.898Z,17.2
2022-11-14T10:06:20.837Z,16.8
2022-11-14T10:10:57.690Z,17.2
2022-11-14T10:15:35.236Z,18.5
2022-11-14T10:17:53.761Z,17.1
2022-11-14T10:20:12.104Z,17.2
2022-11-14T10:22:30.572Z,17.6
2022-11-14T10:24:48.881Z,17.3
2022-11-14T10:27:07.185Z,17.4
2022-11-14T10:29:26.180Z,17.6
2022-11-14T10:31:44.675Z,19
2022-11-14T10:34:02.139Z,17.5
2022-11-14T10:36:19.504Z,17.7
2022-11-14T10:38:37.090Z,17.8
2022-11-14T10:40:54.507Z,17.7
2022-11-14T10:43:24.404Z,17.8
2022-11-14T10:45:41.754Z,17.9
2022-11-14T10:47:59.176Z,17.8
2022-11-14T10:50:16.431Z,17.7
2022-11-14T10:52:33.780Z,17.8
2022-11-14T10:54:50.940Z,18.3
2022-11-14T10:57:22.814Z,17.8
2022-11-14T10:59:40.088Z,18.3
2022-11-14T11:01:57.406Z,18.3
2022-11-14T11:04:14.796Z,18.2
2022-11-14T11:06:31.884Z,18.1
2022-11-14T11:09:04.775Z,18.2
2022-11-14T11:11:21.962Z,18.1
2022-11-14T11:13:39.059Z,18.2
2022-11-14T11:15:56.277Z,18.2
2022-11-14T11:18:13.782Z,17.9
2022-11-14T11:20:30.904Z,19
2022-11-14T11:22:49.563Z,17.9
2022-11-14T11:25:06.281Z,19.7
2022-11-14T11:27:24.788Z,18.4
2022-11-14T11:29:40.432Z,19.6
2022-11-14T11:31:59.109Z,18.4
2022-11-14T11:34:18.090Z,19.6
2022-11-14T11:36:37.207Z,20.1
2022-11-14T11:38:55.969Z,20.3
2022-11-14T11:41:20.551Z,20.3
2022-11-14T11:44:41.399Z,20.6
2022-11-14T11:47:00.563Z,20.5
2022-11-14T11:49:19.322Z,20.3
2022-11-14T11:51:38.249Z,20.4
2022-11-14T11:53:57.265Z,20.4
2022-11-14T11:56:16.175Z,20.3
2022-11-14T11:58:35.118Z,20.3
2022-11-14T12:00:54.206Z,20.7
2022-11-14T12:03:13.214Z,20.6
2022-11-14T12:05:32.013Z,20.6
2022-11-14T12:07:51.074Z,20.4
2022-11-14T12:10:27.791Z,20.1
2022-11-14T12:12:46.633Z,20.3
2022-11-14T12:15:05.614Z,20.4
2022-11-14T12:17:24.796Z,20.5
2022-11-14T12:19:43.622Z,20.8
2022-11-14T12:21:59.547Z,20.1
2022-11-14T12:24:18.216Z,18.4
2022-11-14T12:26:37.303Z,20
2022-11-14T12:28:56.329Z,20.3
2022-11-14T12:31:15.459Z,20.3
2022-11-14T12:33:34.664Z,20.7
2022-11-14T12:35:53.902Z,20.3
2022-11-14T12:38:12.785Z,20.9
2022-11-14T12:40:32.191Z,20.2
2022-11-14T12:42:51.011Z,19.9
2022-11-14T12:45:09.947Z,20.3
2022-11-14T12:47:29.195Z,20.4
2022-11-14T12:49:48.178Z,20.4
2022-11-14T12:52:07.461Z,20.2
2022-11-14T12:54:26.337Z,20.3
2022-11-14T12:56:47.721Z,20.2
2022-11-14T12:59:04.590Z,20.2
2022-11-14T13:01:23.487Z,20.3
2022-11-14T13:03:42.659Z,20.1
2022-11-14T13:06:01.635Z,20.3
2022-11-14T13:08:20.955Z,20.4
2022-11-14T13:10:39.838Z,20.2
2022-11-14T13:12:59.001Z,20
2022-11-14T13:15:18.192Z,20.2
2022-11-14T13:17:37.114Z,20.1
2022-11-14T13:19:56.120Z,20.3
2022-11-14T13:22:15.338Z,20.1
2022-11-14T13:24:34.331Z,20.6
2022-11-14T13:26:53.457Z,19.9
2022-11-14T13:29:34.826Z,19.6
2022-11-14T13:31:53.887Z,20.3
2022-11-14T13:34:12.628Z,19.4
2022-11-14T13:36:31.609Z,19.8
2022-11-14T13:38:50.616Z,20.2
2022-11-14T13:41:09.470Z,19.8
2022-11-14T13:43:28.741Z,19.9
2022-11-14T13:45:47.544Z,19.9
2022-11-14T13:48:06.482Z,20.2
2022-11-14T13:50:25.349Z,20.1
2022-11-14T13:53:01.438Z,19.8
2022-11-14T13:55:20.368Z,20.1
2022-11-14T13:57:39.488Z,19.8
2022-11-14T13:59:54.878Z,19.8
2022-11-14T14:02:13.703Z,18
2022-11-14T14:04:29.052Z,19.5
2022-11-14T14:06:47.883Z,18.1
2022-11-14T14:09:06.740Z,19.3
2022-11-14T14:11:25.671Z,19.9
2022-11-14T14:13:44.556Z,19.6
2022-11-14T14:16:03.515Z,19.6
2022-11-14T14:18:22.655Z,19.7
2022-11-14T14:20:41.528Z,19.6
2022-11-14T14:23:00.510Z,19.5
2022-11-14T14:25:19.409Z,19.8
2022-11-14T14:27:38.379Z,19.6
2022-11-14T14:29:57.426Z,19.6
2022-11-14T14:32:16.277Z,19.8
2022-11-14T14:34:35.207Z,19.4
2022-11-14T14:36:54.269Z,19.2
2022-11-14T14:39:13.265Z,19.7
2022-11-14T14:41:32.171Z,19.9
2022-11-14T14:43:51.418Z,19.7
2022-11-14T14:46:10.138Z,18.9
2022-11-14T14:48:25.618Z,19.4
2022-11-14T14:50:41.965Z,17.5
2022-11-14T14:52:58.605Z,17.5
2022-11-14T14:55:15.664Z,17.3
2022-11-14T14:57:32.862Z,17.6
2022-11-14T14:59:50.366Z,17.3
2022-11-14T15:02:07.739Z,17.3
2022-11-14T15:04:25.263Z,17.5
2022-11-14T15:06:42.728Z,18
2022-11-14T15:09:00.446Z,17.4
2022-11-14T15:11:17.930Z,17.7
2022-11-14T15:13:35.531Z,17.5
2022-11-14T15:15:53.116Z,17.6
2022-11-14T15:18:10.815Z,17.8
2022-11-14T15:20:28.517Z,17.6
2022-11-14T15:22:46.153Z,17.4
2022-11-14T15:25:03.810Z,17.4
2022-11-14T15:27:22.572Z,17.5
2022-11-14T15:31:57.014Z,17.8
2022-11-14T15:34:14.460Z,17.3
2022-11-14T15:36:32.074Z,17.3
2022-11-14T15:39:04.127Z,16.9
2022-11-14T15:41:21.662Z,17.4
2022-11-14T15:43:39.308Z,17.2
2022-11-14T15:45:56.843Z,17.2
2022-11-14T15:48:14.471Z,17.7
2022-11-14T15:50:31.812Z,17.4
2022-11-14T15:52:49.654Z,17.6
2022-11-14T15:55:07.634Z,17.1
2022-11-14T15:57:26.151Z,17.1
2022-11-14T16:00:01.433Z,16.9
2022-11-14T16:02:19.684Z,16.9
2022-11-14T16:06:56.295Z,17.1
2022-11-14T16:09:14.575Z,17.1
2022-11-14T16:11:32.680Z,16.8
2022-11-14T16:13:50.979Z,17.1
2022-11-14T16:16:09.300Z,17.1
2022-11-14T16:25:23.094Z,16.9
2022-11-14T16:27:41.354Z,17.1
2022-11-14T16:29:59.793Z,17.1
2022-11-14T16:34:36.314Z,17.2
2022-11-14T16:36:54.817Z,16.9
2022-11-14T16:41:31.659Z,17.1
2022-11-14T16:43:49.964Z,16.9
2022-11-14T16:46:08.285Z,17.1
2022-11-14T16:48:27.382Z,17.1
2022-11-14T16:50:45.793Z,18.3
2022-11-14T16:53:21.533Z,17.1
2022-11-14T16:55:39.811Z,16.9
2022-11-14T16:57:58.015Z,17.2
2022-11-14T17:00:17.001Z,16.9
2022-11-14T17:02:35.850Z,18.1
2022-11-14T17:04:54.218Z,18.1
2022-11-14T17:07:12.677Z,16.9
2022-11-14T17:09:30.662Z,17.1
2022-11-14T17:14:07.405Z,17.2
2022-11-14T17:16:25.710Z,16.9
2022-11-14T17:18:43.911Z,17.2
2022-11-14T17:21:02.279Z,16.9
2022-11-14T17:23:20.520Z,17.1
2022-11-14T17:25:38.846Z,17.1
2022-11-14T17:27:57.197Z,16.9
2022-11-14T17:30:15.399Z,16.9
2022-11-14T17:32:33.730Z,16.9
2022-11-14T17:34:52.167Z,16.8
2022-11-14T17:37:10.454Z,16.9
2022-11-14T17:39:28.917Z,16.9
2022-11-14T17:41:47.298Z,17.1
2022-11-14T17:44:06.443Z,16.8
2022-11-14T17:46:24.733Z,18.1
2022-11-14T17:48:43.346Z,16.8
2022-11-14T17:51:01.673Z,16.6
2022-11-14T17:53:20.207Z,16.6
2022-11-14T17:55:38.601Z,16.6
2022-11-14T17:57:56.905Z,16.3
2022-11-14T18:00:15.575Z,16.3
2022-11-14T18:02:33.722Z,16.5
2022-11-14T18:04:52.995Z,16.5
2022-11-14T18:07:11.998Z,18.1
2022-11-14T18:09:30.237Z,17.8
2022-11-14T18:11:48.512Z,16.6
2022-11-14T18:14:06.823Z,16.4
2022-11-14T18:16:28.595Z,16.4
2022-11-14T18:19:01.569Z,16.3
2022-11-14T18:21:19.658Z,16.3
2022-11-14T18:23:38.005Z,16.4
2022-11-14T18:25:56.270Z,16.3
2022-11-14T18:28:14.597Z,16.7
2022-11-14T18:30:43.437Z,16.3
2022-11-14T18:33:02.345Z,16.4
2022-11-14T18:35:20.629Z,16.2
2022-11-14T18:37:38.971Z,16.4
2022-11-14T18:39:57.334Z,16.3
2022-11-14T18:42:15.622Z,16.3
2022-11-14T18:44:34.321Z,16.3
2022-11-14T18:46:52.369Z,16.4
2022-11-14T18:49:10.730Z,16.4
2022-11-14T18:51:29.031Z,16.2
2022-11-14T18:53:47.837Z,16.4
2022-11-14T18:56:06.122Z,17.8
2022-11-14T18:58:24.304Z,16.8
2022-11-14T19:00:42.483Z,16.8
2022-11-14T19:03:04.942Z,16.5
2022-11-14T19:05:18.980Z,16.5
2022-11-14T19:07:37.217Z,16.4
2022-11-14T19:09:55.342Z,16.6
2022-11-14T19:12:13.608Z,16.6
2022-11-14T19:14:32.382Z,16.4
2022-11-14T19:16:51.362Z,17.9
2022-11-14T19:19:10.285Z,17.6
2022-11-14T19:21:28.619Z,17.8
2022-11-14T19:23:46.743Z,16.8
2022-11-14T19:26:04.918Z,16.7
2022-11-14T19:28:23.125Z,16.6
2022-11-14T19:30:41.501Z,16.4
2022-11-14T19:33:00.285Z,16.6
2022-11-14T19:35:20.546Z,17.9
2022-11-14T19:37:51.310Z,16.4
2022-11-14T19:40:09.566Z,16.4
2022-11-14T19:42:27.777Z,16.5
2022-11-14T19:44:45.912Z,16.6
2022-11-14T19:47:04.106Z,16.3
2022-11-14T19:49:22.988Z,16.3
2022-11-14T19:51:41.908Z,17.6
2022-11-14T19:54:00.207Z,17.5
2022-11-14T19:56:18.565Z,16.6
2022-11-14T19:58:36.576Z,16.4
2022-11-14T20:00:54.689Z,16.6
2022-11-14T20:03:13.491Z,16.4
2022-11-14T20:05:32.423Z,17.8
2022-11-14T20:07:50.696Z,17.8
2022-11-14T20:10:08.937Z,16.3
2022-11-14T20:12:27.131Z,16.4
2022-11-14T20:14:45.340Z,16.5
2022-11-14T20:17:03.508Z,16.3
2022-11-14T20:19:22.070Z,16.3
2022-11-14T20:21:40.123Z,16.4
2022-11-14T20:23:58.617Z,16.3
2022-11-14T20:26:16.748Z,16.4
2022-11-14T20:28:35.311Z,16.3
2022-11-14T20:30:53.468Z,16.6
2022-11-14T20:33:11.933Z,16.5
2022-11-14T20:35:30.020Z,16.5
2022-11-14T20:38:04.400Z,16.4
2022-11-14T20:40:20.065Z,16.3
2022-11-14T20:42:38.243Z,16.2
2022-11-14T20:44:56.499Z,16.3
2022-11-14T20:47:14.683Z,16.5
2022-11-14T20:49:32.887Z,16.6
2022-11-14T20:51:51.825Z,16.4
2022-11-14T20:54:10.060Z,17.7
2022-11-14T20:56:28.205Z,16.4
2022-11-14T20:58:46.506Z,16.1
2022-11-14T21:01:04.547Z,16.3
2022-11-14T21:03:23.421Z,15.9
2022-11-14T21:05:41.769Z,17.9
2022-11-14T21:08:00.153Z,16.6
2022-11-14T21:10:18.796Z,16.2
2022-11-14T21:12:37.885Z,17.8
2022-11-14T21:14:56.143Z,17.4
2022-11-14T21:17:14.243Z,16.3
2022-11-14T21:19:33.261Z,16.4
2022-11-14T21:21:51.424Z,17.6
2022-11-14T21:24:09.605Z,16.1
2022-11-14T21:26:28.518Z,16.2
2022-11-14T21:28:46.748Z,17.8
2022-11-14T21:31:04.987Z,16.5
2022-11-14T21:33:23.305Z,16.5
2022-11-14T21:35:41.461Z,16
2022-11-14T21:38:18.246Z,16.2
2022-11-14T21:40:37.155Z,17.8
2022-11-14T21:42:55.418Z,17.4
2022-11-14T21:45:13.655Z,16.2
2022-11-14T21:47:32.538Z,16.6
2022-11-14T21:49:51.478Z,17.8
2022-11-14T21:52:09.791Z,17.7
2022-11-14T21:54:28.222Z,16.5
2022-11-14T21:56:46.222Z,16.2
2022-11-14T21:59:05.070Z,16.1
2022-11-14T22:01:23.328Z,17.6
2022-11-14T22:03:41.580Z,16.4
2022-11-14T22:05:59.776Z,16
2022-11-14T22:08:18.000Z,16.4
2022-11-14T22:10:36.225Z,15.9
2022-11-14T22:12:54.496Z,16.2
2022-11-14T22:15:12.718Z,16.2
2022-11-14T22:17:30.911Z,16.3
2022-11-14T22:19:49.341Z,16.1
2022-11-14T22:22:07.440Z,16.4
2022-11-14T22:24:26.327Z,16.1
2022-11-14T22:26:45.278Z,17.4
2022-11-14T22:29:04.180Z,17.5
2022-11-14T22:31:22.479Z,17.7
2022-11-14T22:33:45.546Z,16.3
2022-11-14T22:35:59.661Z,17.4
2022-11-14T22:38:17.970Z,16.4
2022-11-14T22:40:36.120Z,16.1
2022-11-14T22:42:54.390Z,16
2022-11-14T22:45:12.622Z,16.2
2022-11-14T22:47:30.799Z,16.1
2022-11-14T22:49:49.734Z,16.3
2022-11-14T22:52:08.155Z,17.5
2022-11-14T22:54:26.298Z,16.3
2022-11-14T22:56:44.365Z,16.4
2022-11-14T22:59:02.727Z,16.2
2022-11-14T23:01:20.834Z,16.3
2022-11-14T23:03:39.675Z,16.1
2022-11-14T23:05:57.538Z,15.9
2022-11-14T23:08:15.700Z,16.1
2022-11-14T23:10:33.801Z,16
2022-11-14T23:12:51.953Z,16.1
2022-11-14T23:15:10.225Z,16.1
2022-11-14T23:17:29.044Z,16.2
2022-11-14T23:19:47.399Z,17.6
2022-11-14T23:22:05.504Z,16
2022-11-14T23:24:23.800Z,16.1
2022-11-14T23:26:41.954Z,16.2
2022-11-14T23:29:00.782Z,16
2022-11-14T23:31:19.862Z,17.4
2022-11-14T23:33:38.017Z,17.3
2022-11-14T23:35:56.262Z,15.8
2022-11-14T23:38:14.533Z,15.9
2022-11-14T23:40:33.346Z,16.1
2022-11-14T23:42:51.604Z,17.6
2022-11-14T23:45:09.806Z,15.8
2022-11-14T23:47:28.047Z,16
2022-11-14T23:49:46.231Z,15.9
2022-11-14T23:52:05.493Z,16.1
2022-11-14T23:54:23.227Z,17.3
2022-11-14T23:56:42.200Z,16
2022-11-14T23:59:00.484Z,17.3
